Terminal Aerodrome Forecast
Issued by NWS Albany, NY

Home | Current Version | Previous Version | Text Only | Print | Product List | Glossary On
Versions: 1 2 3 4 5 6 7 8 9 10 11 12 13 14 15 16 17 18 19 20 21 22
000
FTUS41 KALY 181700 RRA
TAFGFL
TAF
KGFL 181743Z 1818/1918 05008G14KT P6SM VCSH BKN060
     FM182300 03005KT P6SM BKN050
     FM190100 02004KT P6SM SCT050
     FM190600 VRB02KT P6SM SKC
      TEMPO 1907/1911 2SM BR BKN003
     FM191300 06006KT P6SM SKC=

USA.gov is the U.S. government's official web portal to all federal, state and local government web resources and services.